Time;durP1;ratioP1;P1;durP2;ratioP2;P2;SDS_P1;SDS_P2;PMS_P1;PMS_P2;Temp;Humidity;BMP_temperature;BMP_pressure;BME280_temperature;BME280_humidity;BME280_pressure;Samples;Min_cycle;Max_cycle;Signal;HPM_P1;HPM_P2
2021/10/14 00:00:15;;;;;;;10.82;3.45;;;12.30;99.90;;;;;;5110897;28;20107;-81
2021/10/14 00:02:40;;;;;;;9.70;3.13;;;12.20;99.90;;;;;;5093371;28;20054;-81
2021/10/14 00:05:06;;;;;;;12.73;3.45;;;12.20;99.90;;;;;;5092996;28;20043;-81
2021/10/14 00:07:32;;;;;;;13.35;3.42;;;12.30;99.90;;;;;;5110499;28;20039;-81
2021/10/14 00:09:58;;;;;;;15.25;2.80;;;12.20;99.90;;;;;;5093416;28;20510;-81
2021/10/14 00:12:24;;;;;;;13.40;2.85;;;12.40;99.90;;;;;;5127813;27;20096;-81
2021/10/14 00:14:49;;;;;;;11.93;2.67;;;12.30;99.90;;;;;;5076660;28;20039;-81
2021/10/14 00:17:15;;;;;;;11.27;3.03;;;12.30;99.90;;;;;;5076756;28;20051;-81
2021/10/14 00:19:41;;;;;;;15.00;2.75;;;12.30;99.90;;;;;;5127118;27;20546;-81
2021/10/14 00:22:07;;;;;;;13.18;3.10;;;12.20;99.90;;;;;;5076220;28;20050;-82
2021/10/14 00:24:32;;;;;;;11.05;2.95;;;12.30;99.90;;;;;;5093462;28;20054;-81
2021/10/14 00:26:58;;;;;;;9.10;2.30;;;12.20;99.90;;;;;;5099244;28;20491;-81
2021/10/14 00:29:24;;;;;;;14.00;3.15;;;12.20;99.90;;;;;;5125860;27;20125;-81
2021/10/14 00:31:50;;;;;;;14.35;3.40;;;12.30;99.90;;;;;;5112648;27;20553;-81
2021/10/14 00:34:16;;;;;;;16.75;3.47;;;12.20;99.90;;;;;;5113613;27;20050;-81
2021/10/14 00:36:42;;;;;;;13.05;3.30;;;12.30;99.90;;;;;;5095323;27;20050;-81
2021/10/14 00:39:07;;;;;;;11.30;2.78;;;12.20;99.90;;;;;;5113396;27;20077;-81
2021/10/14 00:41:33;;;;;;;14.15;2.58;;;12.30;99.90;;;;;;5130377;27;20421;-81
2021/10/14 00:43:59;;;;;;;8.25;2.38;;;12.20;99.90;;;;;;5113548;27;20050;-81
2021/10/14 00:46:25;;;;;;;11.70;2.72;;;12.30;99.90;;;;;;5112610;27;20532;-81
2021/10/14 00:48:52;;;;;;;17.58;3.33;;;12.30;99.90;;;;;;5112280;27;20087;-81
2021/10/14 00:51:20;;;;;;;14.25;3.20;;;12.30;99.90;;;;;;5112938;27;20039;-81
2021/10/14 00:53:48;;;;;;;11.85;3.17;;;12.30;99.90;;;;;;5111091;27;20039;-81
2021/10/14 00:56:17;;;;;;;15.02;2.75;;;12.30;99.90;;;;;;5072152;27;20067;-81
2021/10/14 00:58:46;;;;;;;15.00;3.00;;;12.30;99.90;;;;;;5094695;27;20509;-81
2021/10/14 01:01:13;;;;;;;7.97;2.55;;;12.30;99.90;;;;;;5101529;27;20044;-81
2021/10/14 01:03:39;;;;;;;12.48;3.40;;;12.30;99.90;;;;;;5081097;28;20093;-81
2021/10/14 01:06:04;;;;;;;8.88;2.58;;;12.40;99.90;;;;;;5055616;28;20071;-81
2021/10/14 01:08:30;;;;;;;10.07;3.05;;;12.40;99.90;;;;;;5090108;27;20043;-81
2021/10/14 01:10:56;;;;;;;12.77;3.30;;;12.40;99.90;;;;;;5095733;27;20043;-81
2021/10/14 01:13:22;;;;;;;8.68;3.70;;;12.50;99.90;;;;;;5112555;27;20047;-81
2021/10/14 01:15:48;;;;;;;10.82;3.35;;;12.40;99.90;;;;;;5113309;27;20046;-81
2021/10/14 01:18:14;;;;;;;9.52;3.47;;;12.50;99.90;;;;;;5110263;27;20039;-81
2021/10/14 01:20:40;;;;;;;15.75;4.03;;;12.50;99.90;;;;;;5143456;27;20048;-81
2021/10/14 01:23:06;;;;;;;12.60;4.45;;;12.50;99.90;;;;;;5107911;28;20490;-81
2021/10/14 01:25:33;;;;;;;15.35;4.40;;;12.50;99.90;;;;;;5109245;28;20085;-81
2021/10/14 01:27:59;;;;;;;19.67;4.53;;;12.50;99.90;;;;;;5117440;27;20039;-81
2021/10/14 01:30:25;;;;;;;19.70;4.40;;;12.50;99.90;;;;;;5129641;27;20039;-81
2021/10/14 01:32:51;;;;;;;16.00;4.78;;;12.50;99.90;;;;;;5111346;27;20114;-81
2021/10/14 01:35:18;;;;;;;13.40;4.47;;;12.50;99.90;;;;;;5092764;27;20486;-81
2021/10/14 01:37:44;;;;;;;15.32;4.88;;;12.60;99.90;;;;;;5128561;27;20049;-81
2021/10/14 01:40:10;;;;;;;11.85;4.55;;;12.60;99.90;;;;;;5112747;27;20390;-81
2021/10/14 01:42:36;;;;;;;13.48;4.32;;;12.50;99.90;;;;;;5128397;27;20047;-81
2021/10/14 01:45:04;;;;;;;16.55;4.93;;;12.50;99.90;;;;;;5112412;27;20043;-81
2021/10/14 01:47:33;;;;;;;15.07;4.78;;;12.50;99.90;;;;;;5128452;27;20102;-81
2021/10/14 01:49:59;;;;;;;17.13;4.78;;;12.50;99.90;;;;;;5102249;28;20139;-81
2021/10/14 01:52:25;;;;;;;12.93;4.72;;;12.50;99.90;;;;;;5086908;27;20553;-81
2021/10/14 01:54:50;;;;;;;10.32;4.78;;;12.50;99.90;;;;;;5102795;28;20055;-81
2021/10/14 01:57:16;;;;;;;12.52;4.63;;;12.50;99.90;;;;;;5085850;27;20047;-81
2021/10/14 01:59:42;;;;;;;9.85;4.50;;;12.50;99.90;;;;;;5111623;27;20073;-81
2021/10/14 02:02:08;;;;;;;14.20;4.63;;;12.50;99.90;;;;;;5094296;27;20055;-81
2021/10/14 02:04:34;;;;;;;12.07;4.55;;;12.40;99.90;;;;;;5111246;27;20671;-81
2021/10/14 02:07:00;;;;;;;19.33;4.68;;;12.40;99.90;;;;;;5129091;27;20125;-81
2021/10/14 02:09:25;;;;;;;14.07;4.22;;;12.40;99.90;;;;;;5094818;27;20035;-81
2021/10/14 02:11:51;;;;;;;12.20;4.63;;;12.30;99.90;;;;;;5086497;28;20482;-81
2021/10/14 02:14:17;;;;;;;14.10;4.60;;;12.40;99.90;;;;;;5107889;28;20407;-81
2021/10/14 02:16:43;;;;;;;12.75;4.68;;;12.30;99.90;;;;;;5108258;28;20550;-81
2021/10/14 02:19:08;;;;;;;16.85;4.78;;;12.40;99.90;;;;;;5106595;28;20043;-81
2021/10/14 02:21:34;;;;;;;12.05;4.47;;;12.40;99.90;;;;;;5091245;28;20074;-81
2021/10/14 02:24:00;;;;;;;16.55;5.25;;;12.40;99.90;;;;;;5124896;27;20146;-81
2021/10/14 02:26:26;;;;;;;12.20;4.57;;;12.30;99.90;;;;;;5124745;27;20170;-81
2021/10/14 02:28:51;;;;;;;13.55;5.00;;;12.30;99.90;;;;;;5124541;27;20088;-81
2021/10/14 02:31:17;;;;;;;17.00;4.60;;;12.30;99.90;;;;;;5125419;27;20047;-81
2021/10/14 02:33:43;;;;;;;9.68;4.63;;;12.30;99.90;;;;;;5108250;28;20043;-81
2021/10/14 02:36:09;;;;;;;16.17;4.60;;;12.20;99.90;;;;;;5090660;28;20130;-81
2021/10/14 02:38:35;;;;;;;14.15;4.15;;;12.30;99.90;;;;;;5107629;28;20039;-81
2021/10/14 02:41:02;;;;;;;13.18;4.70;;;12.20;99.90;;;;;;5090699;28;20445;-81
2021/10/14 02:43:29;;;;;;;16.88;4.55;;;12.20;99.90;;;;;;5090997;28;20083;-81
2021/10/14 02:45:54;;;;;;;11.77;4.13;;;12.20;99.90;;;;;;5124274;27;20112;-81
2021/10/14 02:48:20;;;;;;;13.80;4.47;;;12.20;99.90;;;;;;5087170;28;20036;-81
2021/10/14 02:50:46;;;;;;;11.57;3.85;;;12.20;99.90;;;;;;5108043;27;20048;-81
2021/10/14 02:53:12;;;;;;;11.80;3.65;;;12.10;99.90;;;;;;5104479;28;20048;-81
2021/10/14 02:55:38;;;;;;;11.55;4.15;;;12.20;99.90;;;;;;5114378;28;20055;-81
2021/10/14 02:58:03;;;;;;;17.65;5.00;;;12.20;99.90;;;;;;5074996;28;20048;-81
2021/10/14 03:00:29;;;;;;;10.32;4.18;;;12.10;99.90;;;;;;5090625;28;20047;-81
2021/10/14 03:02:55;;;;;;;15.20;4.55;;;12.20;99.90;;;;;;5124820;28;20055;-81
2021/10/14 03:05:20;;;;;;;11.23;4.40;;;12.20;99.90;;;;;;5078947;28;20036;-81
2021/10/14 03:07:46;;;;;;;16.08;4.55;;;12.20;99.90;;;;;;5073299;28;20040;-81
2021/10/14 03:10:12;;;;;;;8.00;4.45;;;12.20;99.90;;;;;;5107675;28;20043;-81
2021/10/14 03:12:38;;;;;;;13.85;4.82;;;12.20;99.90;;;;;;5107494;28;20027;-81
2021/10/14 03:15:05;;;;;;;12.82;4.95;;;12.20;99.90;;;;;;5141667;27;20044;-81
2021/10/14 03:17:30;;;;;;;15.77;4.93;;;12.20;99.90;;;;;;5124355;27;20044;-81
2021/10/14 03:19:56;;;;;;;14.48;6.00;;;12.20;99.90;;;;;;5107415;28;20035;-81
2021/10/14 03:22:22;;;;;;;11.85;4.78;;;12.20;99.90;;;;;;5123843;28;20184;-81
2021/10/14 03:24:47;;;;;;;12.93;4.70;;;12.20;99.90;;;;;;5089998;28;20032;-81
2021/10/14 03:27:13;;;;;;;16.42;5.35;;;12.30;99.90;;;;;;5107596;28;20047;-81
2021/10/14 03:29:39;;;;;;;11.07;4.75;;;12.20;99.90;;;;;;5090568;28;20043;-81
2021/10/14 03:32:05;;;;;;;13.13;5.13;;;12.30;99.90;;;;;;5073243;28;20495;-81
2021/10/14 03:34:30;;;;;;;10.63;4.72;;;12.30;99.90;;;;;;5107106;28;20051;-81
2021/10/14 03:36:56;;;;;;;13.60;5.07;;;12.30;99.90;;;;;;5123724;27;20509;-81
2021/10/14 03:39:22;;;;;;;15.75;5.10;;;12.20;99.90;;;;;;5090252;28;20052;-81
2021/10/14 03:41:48;;;;;;;13.00;5.30;;;12.20;99.90;;;;;;5109951;28;20035;-81
2021/10/14 03:44:14;;;;;;;8.05;4.97;;;12.20;99.90;;;;;;5127427;28;20043;-81
2021/10/14 03:46:40;;;;;;;10.68;5.93;;;12.20;99.90;;;;;;5110524;28;20112;-81
2021/10/14 03:49:06;;;;;;;14.90;6.75;;;12.30;99.90;;;;;;5107825;28;20074;-81
2021/10/14 03:51:32;;;;;;;13.30;6.90;;;12.30;99.90;;;;;;5072975;28;20067;-81
2021/10/14 03:53:58;;;;;;;15.88;6.68;;;12.30;99.90;;;;;;5090384;28;20047;-81
2021/10/14 03:56:24;;;;;;;16.35;7.35;;;12.30;99.90;;;;;;5107286;28;20494;-81
2021/10/14 03:58:50;;;;;;;19.88;7.40;;;12.40;99.90;;;;;;5071009;28;20044;-81
2021/10/14 04:01:16;;;;;;;17.85;7.63;;;12.40;99.90;;;;;;5124620;27;20060;-81
2021/10/14 04:03:42;;;;;;;23.10;8.15;;;12.40;99.90;;;;;;5109726;28;20482;-81
2021/10/14 04:06:08;;;;;;;20.95;7.85;;;12.50;99.90;;;;;;5110518;28;20126;-81
2021/10/14 04:08:34;;;;;;;20.33;8.30;;;12.40;99.90;;;;;;5110347;28;20479;-81
2021/10/14 04:11:00;;;;;;;19.20;7.53;;;12.30;99.90;;;;;;5110605;28;20051;-81
2021/10/14 04:13:25;;;;;;;20.75;8.00;;;12.40;99.90;;;;;;5127093;27;20047;-82
2021/10/14 04:15:51;;;;;;;15.52;7.68;;;12.50;99.90;;;;;;5110470;28;20108;-81
2021/10/14 04:18:17;;;;;;;27.05;8.20;;;12.40;99.90;;;;;;5110767;28;20128;-81
2021/10/14 04:20:43;;;;;;;17.00;7.53;;;12.40;99.90;;;;;;5110675;28;20047;-81
2021/10/14 04:23:09;;;;;;;21.45;8.38;;;12.50;99.90;;;;;;5093258;28;20146;-81
2021/10/14 04:25:34;;;;;;;26.42;8.75;;;12.40;99.90;;;;;;5093286;28;20096;-81
2021/10/14 04:28:02;;;;;;;14.75;8.50;;;12.40;99.90;;;;;;5126802;27;20564;-81
2021/10/14 04:30:27;;;;;;;22.70;8.43;;;12.50;99.90;;;;;;5110485;27;20059;-81
2021/10/14 04:32:54;;;;;;;19.20;9.00;;;12.50;99.90;;;;;;5092895;28;20088;-81
2021/10/14 04:35:20;;;;;;;20.05;8.18;;;12.40;99.90;;;;;;5110109;28;20044;-81
2021/10/14 04:37:46;;;;;;;26.67;8.63;;;12.50;99.90;;;;;;5109238;28;20043;-81
2021/10/14 04:40:11;;;;;;;26.50;8.95;;;12.50;99.90;;;;;;5075121;28;20035;-81
2021/10/14 04:42:37;;;;;;;20.55;8.93;;;12.50;99.90;;;;;;5107460;27;20105;-81
2021/10/14 04:45:04;;;;;;;28.38;9.43;;;12.40;99.90;;;;;;5125661;27;20119;-81
2021/10/14 04:47:29;;;;;;;25.15;9.52;;;12.50;99.90;;;;;;5109835;28;20043;-81
2021/10/14 04:49:55;;;;;;;24.45;9.32;;;12.50;99.90;;;;;;5094362;28;20469;-81
2021/10/14 04:52:21;;;;;;;26.48;10.02;;;12.50;99.90;;;;;;5108845;27;20043;-81
2021/10/14 04:54:50;;;;;;;30.30;10.73;;;12.60;99.90;;;;;;5077730;28;20045;-81
2021/10/14 04:57:27;;;;;;;23.23;10.35;;;12.50;99.90;;;;;;5095041;28;20499;-81
2021/10/14 04:59:52;;;;;;;22.52;9.15;;;12.50;99.90;;;;;;5105501;27;20042;-81
2021/10/14 05:02:18;;;;;;;26.05;10.30;;;12.60;99.90;;;;;;5080118;27;20055;-81
2021/10/14 05:04:44;;;;;;;27.42;10.90;;;12.50;99.90;;;;;;5108414;27;20051;-83
2021/10/14 05:07:09;;;;;;;27.67;11.07;;;12.60;99.90;;;;;;5113052;27;20114;-83
2021/10/14 05:09:35;;;;;;;24.35;10.70;;;12.60;99.90;;;;;;5105817;28;20387;-83
2021/10/14 05:12:01;;;;;;;24.58;11.13;;;12.60;99.90;;;;;;5113160;27;20498;-82
2021/10/14 05:14:27;;;;;;;21.33;11.02;;;12.70;99.90;;;;;;5108338;28;20459;-82
2021/10/14 05:16:53;;;;;;;32.97;12.65;;;12.60;99.90;;;;;;5091672;28;20043;-83
2021/10/14 05:19:18;;;;;;;26.10;11.63;;;12.60;99.90;;;;;;5086415;27;20039;-84
2021/10/14 05:21:44;;;;;;;20.20;12.13;;;12.60;99.90;;;;;;5091924;28;20067;-83
2021/10/14 05:24:10;;;;;;;22.65;12.85;;;12.60;99.90;;;;;;5100653;28;20494;-83
2021/10/14 05:26:35;;;;;;;18.95;12.00;;;12.60;99.90;;;;;;5088323;28;20048;-83
2021/10/14 05:29:01;;;;;;;26.35;12.98;;;12.60;99.90;;;;;;5106153;27;20047;-82
2021/10/14 05:31:27;;;;;;;23.92;13.02;;;12.60;99.90;;;;;;5128693;27;20051;-80
2021/10/14 05:33:54;;;;;;;24.25;12.70;;;12.60;99.90;;;;;;5089664;28;20050;-80
2021/10/14 05:36:20;;;;;;;30.65;13.70;;;12.60;99.90;;;;;;5090431;28;20043;-80
2021/10/14 05:38:46;;;;;;;21.60;12.68;;;12.50;99.90;;;;;;5089844;28;20054;-80
2021/10/14 05:41:12;;;;;;;27.30;14.55;;;12.50;99.90;;;;;;5106535;28;20043;-80
2021/10/14 05:43:38;;;;;;;21.77;13.65;;;12.50;99.90;;;;;;5107426;28;20063;-80
2021/10/14 05:46:04;;;;;;;21.45;12.25;;;12.60;99.90;;;;;;5073604;28;20044;-80
2021/10/14 05:48:29;;;;;;;23.00;13.35;;;12.60;99.90;;;;;;5107673;28;20036;-80
2021/10/14 05:50:55;;;;;;;30.02;13.02;;;12.50;99.90;;;;;;5073474;28;20043;-80
2021/10/14 05:53:21;;;;;;;22.88;12.35;;;12.60;99.90;;;;;;5125077;27;20036;-80
2021/10/14 05:55:48;;;;;;;18.85;11.95;;;12.50;99.90;;;;;;5089813;28;20131;-80
2021/10/14 05:58:14;;;;;;;18.73;10.60;;;12.50;99.90;;;;;;5110368;27;20039;-80
2021/10/14 06:00:40;;;;;;;21.58;11.00;;;12.50;99.90;;;;;;5095986;27;20043;-80
2021/10/14 06:03:06;;;;;;;17.95;10.15;;;12.50;99.90;;;;;;5128940;27;20051;-80
2021/10/14 06:05:31;;;;;;;22.48;12.45;;;12.50;99.90;;;;;;5128919;27;20039;-80
2021/10/14 06:07:57;;;;;;;20.33;12.23;;;12.50;99.90;;;;;;5093548;28;20090;-80
2021/10/14 06:10:23;;;;;;;25.92;11.88;;;12.50;99.90;;;;;;5091492;27;20747;-80
2021/10/14 06:12:49;;;;;;;18.23;11.60;;;12.40;99.90;;;;;;5108770;28;20035;-80
2021/10/14 06:15:14;;;;;;;20.58;12.07;;;12.50;99.90;;;;;;5074856;28;20490;-80
2021/10/14 06:17:40;;;;;;;20.95;11.27;;;12.50;99.90;;;;;;5074723;28;20157;-80
2021/10/14 06:20:06;;;;;;;18.85;10.85;;;12.50;99.90;;;;;;5108488;28;20075;-80
2021/10/14 06:22:32;;;;;;;13.65;10.25;;;12.40;99.90;;;;;;5090749;28;20044;-80
2021/10/14 06:24:57;;;;;;;15.75;10.20;;;12.40;99.90;;;;;;5107589;28;20053;-80
2021/10/14 06:27:23;;;;;;;15.88;10.70;;;12.40;99.90;;;;;;5090899;28;20050;-80
2021/10/14 06:29:49;;;;;;;21.48;10.82;;;12.40;99.90;;;;;;5074466;28;20126;-81
2021/10/14 06:32:14;;;;;;;18.50;11.32;;;12.40;99.90;;;;;;5091380;28;20043;-80
2021/10/14 06:34:40;;;;;;;16.95;12.25;;;12.40;99.90;;;;;;5091090;28;20050;-80
2021/10/14 06:37:06;;;;;;;22.33;12.98;;;12.40;99.90;;;;;;5073655;28;20047;-80
2021/10/14 06:39:31;;;;;;;21.17;11.70;;;12.40;99.90;;;;;;5107844;27;20047;-80
2021/10/14 06:42:00;;;;;;;17.42;11.20;;;12.40;99.90;;;;;;5090552;28;20671;-80
2021/10/14 06:44:26;;;;;;;18.55;11.10;;;12.40;99.90;;;;;;5091478;28;20044;-80
2021/10/14 06:46:52;;;;;;;22.52;12.15;;;12.40;99.90;;;;;;5090390;28;20057;-80
2021/10/14 06:49:18;;;;;;;15.57;10.48;;;12.30;99.90;;;;;;5091147;28;20039;-80
2021/10/14 06:51:44;;;;;;;14.70;10.15;;;12.40;99.90;;;;;;5073920;28;20075;-80
2021/10/14 06:54:13;;;;;;;18.83;11.77;;;12.30;99.90;;;;;;5087615;28;20036;-81
2021/10/14 06:56:39;;;;;;;14.45;9.88;;;12.30;99.90;;;;;;5082909;28;20547;-80
2021/10/14 06:59:04;;;;;;;16.25;10.65;;;12.40;99.90;;;;;;5107303;28;20055;-80
2021/10/14 07:01:30;;;;;;;22.60;10.95;;;12.30;99.90;;;;;;5106267;28;20414;-81
2021/10/14 07:03:56;;;;;;;15.10;8.75;;;12.30;99.90;;;;;;5072914;28;20184;-80
2021/10/14 07:06:22;;;;;;;13.73;9.23;;;12.40;99.90;;;;;;5089206;28;20040;-83
2021/10/14 07:08:47;;;;;;;21.98;9.88;;;12.30;99.90;;;;;;5105541;28;20471;-83
2021/10/14 07:11:13;;;;;;;12.35;8.43;;;12.30;99.90;;;;;;5107058;28;20122;-83
2021/10/14 07:13:44;;;;;;;14.77;7.50;;;12.30;99.90;;;;;;5090492;28;20044;-81
2021/10/14 07:16:09;;;;;;;10.25;6.75;;;12.30;99.90;;;;;;5068550;28;20054;-81
2021/10/14 07:18:35;;;;;;;9.05;6.07;;;12.40;99.90;;;;;;5089369;28;20406;-81
2021/10/14 07:21:01;;;;;;;8.43;5.88;;;12.40;99.90;;;;;;5088329;28;20153;-81
2021/10/14 07:23:28;;;;;;;11.43;6.53;;;12.40;99.90;;;;;;5105565;28;20035;-81
2021/10/14 07:25:55;;;;;;;9.07;6.15;;;12.40;99.90;;;;;;5106033;28;20126;-81
2021/10/14 07:28:20;;;;;;;10.70;5.85;;;12.40;99.90;;;;;;5105904;28;20044;-81
2021/10/14 07:30:46;;;;;;;11.75;6.65;;;12.40;99.90;;;;;;5105636;28;20154;-81
2021/10/14 07:33:12;;;;;;;12.07;6.40;;;12.40;99.90;;;;;;5089002;28;20104;-81
2021/10/14 07:35:40;;;;;;;9.85;6.35;;;12.40;99.90;;;;;;5126576;27;20734;-81
2021/10/14 07:38:10;;;;;;;11.35;6.60;;;12.50;99.90;;;;;;5143463;27;20052;-81
2021/10/14 07:40:39;;;;;;;11.48;5.90;;;12.50;99.90;;;;;;5144087;27;20075;-81
2021/10/14 07:43:06;;;;;;;15.38;6.75;;;12.50;99.90;;;;;;5142942;27;20487;-81
2021/10/14 07:45:32;;;;;;;9.90;5.40;;;12.50;99.90;;;;;;5109972;28;20206;-81
2021/10/14 07:47:58;;;;;;;10.43;6.28;;;12.50;99.90;;;;;;5092832;28;20075;-81
2021/10/14 07:50:24;;;;;;;9.90;6.22;;;12.50;99.90;;;;;;5128270;27;20123;-81
2021/10/14 07:52:50;;;;;;;9.98;5.85;;;12.50;99.90;;;;;;5110678;28;20130;-81
2021/10/14 07:55:16;;;;;;;10.43;5.03;;;12.50;99.90;;;;;;5111176;28;20130;-81
2021/10/14 07:57:44;;;;;;;8.73;3.03;;;12.50;99.90;;;;;;5093867;28;20100;-81
2021/10/14 08:00:10;;;;;;;6.10;3.00;;;12.60;99.90;;;;;;5110546;28;20039;-81
2021/10/14 08:02:36;;;;;;;5.97;3.67;;;12.70;99.90;;;;;;5145423;27;20074;-81
2021/10/14 08:05:02;;;;;;;7.50;3.90;;;12.70;99.90;;;;;;5128044;27;20039;-81
2021/10/14 08:07:29;;;;;;;11.40;4.07;;;12.70;99.90;;;;;;5128035;27;20168;-81
2021/10/14 08:09:55;;;;;;;8.57;4.05;;;12.80;99.90;;;;;;5093542;28;20498;-81
2021/10/14 08:12:22;;;;;;;9.90;4.57;;;12.80;99.90;;;;;;5128097;27;20039;-81
2021/10/14 08:14:48;;;;;;;10.10;4.65;;;12.80;99.90;;;;;;5110753;28;20076;-81
2021/10/14 08:17:14;;;;;;;11.88;6.40;;;12.70;99.90;;;;;;5093356;28;20102;-81
2021/10/14 08:19:39;;;;;;;10.27;5.75;;;12.70;99.90;;;;;;5127895;27;20078;-81
2021/10/14 08:22:05;;;;;;;12.98;7.38;;;12.70;99.90;;;;;;5144603;27;20122;-81
2021/10/14 08:24:31;;;;;;;13.10;6.32;;;12.70;99.90;;;;;;5127539;27;20040;-81
2021/10/14 08:26:57;;;;;;;12.05;6.57;;;12.70;99.90;;;;;;5127431;27;20044;-80
2021/10/14 08:29:22;;;;;;;15.48;6.68;;;12.70;99.90;;;;;;5110357;28;20403;-81
2021/10/14 08:31:48;;;;;;;9.10;6.45;;;12.70;99.90;;;;;;5127923;27;20138;-81
2021/10/14 08:34:14;;;;;;;11.88;6.70;;;12.70;99.90;;;;;;5110415;28;20486;-81
2021/10/14 08:36:42;;;;;;;11.07;6.95;;;12.70;99.90;;;;;;5110198;28;20047;-81
2021/10/14 08:39:08;;;;;;;15.20;8.13;;;12.70;99.90;;;;;;5109847;28;20047;-81
2021/10/14 08:41:34;;;;;;;14.90;7.65;;;12.70;99.90;;;;;;5144523;27;20043;-81
2021/10/14 08:44:01;;;;;;;11.73;8.55;;;12.70;99.90;;;;;;5110133;28;20048;-81
2021/10/14 08:46:27;;;;;;;16.92;8.98;;;12.70;99.90;;;;;;5125985;27;20114;-81
2021/10/14 08:48:52;;;;;;;15.80;8.93;;;12.70;99.90;;;;;;5093077;28;20128;-81
2021/10/14 08:51:18;;;;;;;16.42;9.52;;;12.70;99.90;;;;;;5076424;28;20044;-81
2021/10/14 08:53:47;;;;;;;13.93;8.43;;;12.80;99.90;;;;;;5110359;28;20043;-81
2021/10/14 08:56:13;;;;;;;14.82;8.82;;;12.80;99.90;;;;;;5093103;28;20043;-81
2021/10/14 08:58:39;;;;;;;15.05;8.70;;;12.80;99.90;;;;;;5092923;28;20541;-81
2021/10/14 09:01:13;;;;;;;14.25;9.35;;;12.80;99.90;;;;;;5076005;28;20489;-81
2021/10/14 09:03:49;;;;;;;13.82;7.75;;;12.80;99.90;;;;;;5109864;28;20083;-81
2021/10/14 09:06:16;;;;;;;13.07;8.07;;;12.80;99.90;;;;;;5092614;28;20115;-81
2021/10/14 09:08:44;;;;;;;12.68;8.25;;;12.90;99.90;;;;;;5092796;28;20118;-81
2021/10/14 09:11:26;;;;;;;18.40;7.40;;;12.90;99.90;;;;;;5109546;28;20035;-80
2021/10/14 09:13:57;;;;;;;13.13;7.47;;;12.90;99.90;;;;;;5109358;28;20498;-81
2021/10/14 09:16:38;;;;;;;13.23;5.90;;;12.90;99.90;;;;;;5092390;28;20152;-81
2021/10/14 09:19:23;;;;;;;13.10;5.55;;;12.90;99.90;;;;;;5091313;28;20054;-81
2021/10/14 09:21:58;;;;;;;10.05;5.03;;;13.00;99.90;;;;;;5143916;27;20100;-81
2021/10/14 09:24:32;;;;;;;9.60;4.20;;;13.00;99.90;;;;;;5092441;28;20040;-81
2021/10/14 09:27:01;;;;;;;6.88;3.70;;;13.10;99.90;;;;;;5126516;27;20035;-81
2021/10/14 09:29:28;;;;;;;10.10;3.75;;;13.10;99.90;;;;;;5126241;27;20039;-81
2021/10/14 09:32:01;;;;;;;5.18;2.90;;;13.20;99.90;;;;;;5092550;28;20108;-81
2021/10/14 09:34:31;;;;;;;5.80;2.67;;;13.20;99.90;;;;;;5109192;28;20047;-81
2021/10/14 09:37:00;;;;;;;4.43;2.47;;;13.30;99.90;;;;;;5092125;28;20075;-80
2021/10/14 09:39:26;;;;;;;15.23;4.03;;;13.30;99.90;;;;;;5109069;28;20048;-81
2021/10/14 09:41:54;;;;;;;11.38;3.40;;;13.30;99.90;;;;;;5092074;28;20047;-81
2021/10/14 09:44:20;;;;;;;7.53;2.80;;;13.30;99.90;;;;;;5074947;28;20063;-81
2021/10/14 09:46:51;;;;;;;9.48;3.00;;;13.30;99.90;;;;;;5108308;28;20117;-81
2021/10/14 09:49:30;;;;;;;9.32;2.88;;;13.30;99.90;;;;;;5143122;27;20044;-81
2021/10/14 09:51:59;;;;;;;7.22;2.25;;;13.30;99.90;;;;;;5126022;27;20082;-81
2021/10/14 09:54:26;;;;;;;10.98;2.60;;;13.20;99.90;;;;;;5091818;28;20035;-80
2021/10/14 09:56:51;;;;;;;6.75;2.00;;;13.20;99.90;;;;;;5091184;28;20097;-81
2021/10/14 09:59:17;;;;;;;9.60;2.50;;;13.30;99.90;;;;;;5091284;28;20051;-81
2021/10/14 10:01:43;;;;;;;7.47;2.35;;;13.30;99.90;;;;;;5108497;28;20419;-81
2021/10/14 10:04:09;;;;;;;9.85;2.92;;;13.30;99.90;;;;;;5091719;28;20051;-81
2021/10/14 10:06:37;;;;;;;8.18;2.97;;;13.30;99.90;;;;;;5091485;28;20044;-81
2021/10/14 10:09:15;;;;;;;6.10;2.65;;;13.40;99.90;;;;;;5074811;28;20043;-81
2021/10/14 10:11:46;;;;;;;9.23;3.60;;;13.40;99.90;;;;;;5108489;28;20046;-81
2021/10/14 10:14:13;;;;;;;8.70;2.83;;;13.40;99.90;;;;;;5091175;28;20050;-81
2021/10/14 10:16:54;;;;;;;5.32;2.80;;;13.50;99.90;;;;;;5090609;28;20035;-80
2021/10/14 10:19:40;;;;;;;7.18;3.20;;;13.50;99.90;;;;;;5108341;28;20058;-81
2021/10/14 10:22:06;;;;;;;9.10;2.88;;;13.50;99.90;;;;;;5107934;28;20040;-81
2021/10/14 10:24:34;;;;;;;7.60;3.00;;;13.50;99.90;;;;;;5108236;28;20051;-81
2021/10/14 10:27:01;;;;;;;8.35;3.08;;;13.60;99.90;;;;;;5091264;28;20031;-81
2021/10/14 10:29:27;;;;;;;6.63;3.40;;;13.60;99.90;;;;;;5108174;28;20140;-81
2021/10/14 10:31:53;;;;;;;8.38;3.75;;;13.70;99.90;;;;;;5091097;28;20554;-81
2021/10/14 10:40:01;;;;;;;7.53;4.07;;;13.90;99.90;;;;;;5108221;28;20041;-81
2021/10/14 10:42:36;;;;;;;10.77;3.72;;;13.90;99.90;;;;;;5090810;28;20083;-80
2021/10/14 10:45:13;;;;;;;11.38;4.32;;;14.00;99.90;;;;;;5107563;28;20050;-81
2021/10/14 10:47:44;;;;;;;9.63;4.35;;;13.90;99.90;;;;;;5107975;28;20522;-81
2021/10/14 10:50:18;;;;;;;5.85;4.18;;;13.90;99.90;;;;;;5108233;28;20398;-81
2021/10/14 10:52:46;;;;;;;12.95;3.78;;;13.90;99.90;;;;;;5107331;28;20039;-81
2021/10/14 10:55:35;;;;;;;8.63;4.40;;;13.90;99.90;;;;;;5107495;28;20064;-81
2021/10/14 10:58:02;;;;;;;6.88;4.15;;;13.90;99.90;;;;;;5107938;28;20284;-81
2021/10/14 11:00:28;;;;;;;8.10;3.65;;;13.90;99.90;;;;;;5107031;28;20044;-81
2021/10/14 11:03:13;;;;;;;8.70;4.00;;;14.00;99.90;;;;;;5074139;28;20535;-81
2021/10/14 11:05:43;;;;;;;8.35;3.95;;;14.00;99.90;;;;;;5107794;28;20032;-81
2021/10/14 11:08:11;;;;;;;10.25;3.63;;;14.00;99.90;;;;;;5108427;28;20145;-81
2021/10/14 11:10:37;;;;;;;9.45;4.45;;;14.10;99.90;;;;;;5078276;28;20096;-81
2021/10/14 11:13:03;;;;;;;5.97;3.47;;;14.10;99.90;;;;;;5094971;28;20047;-81
2021/10/14 11:15:29;;;;;;;5.78;3.85;;;14.10;99.90;;;;;;5094606;28;20075;-81
2021/10/14 11:18:06;;;;;;;9.82;3.97;;;14.10;99.90;;;;;;5111308;28;20659;-81
2021/10/14 11:20:32;;;;;;;9.50;3.97;;;14.10;99.90;;;;;;5094491;28;20043;-81
2021/10/14 11:23:06;;;;;;;9.13;4.28;;;14.10;99.90;;;;;;5111584;28;20047;-81
2021/10/14 11:25:33;;;;;;;8.82;4.15;;;14.10;99.90;;;;;;5095090;28;20078;-81
2021/10/14 11:28:02;;;;;;;8.68;4.18;;;14.10;99.90;;;;;;5111591;28;20047;-81
2021/10/14 11:30:36;;;;;;;15.57;4.13;;;14.10;99.90;;;;;;5094685;28;20100;-81
2021/10/14 11:33:09;;;;;;;7.22;3.80;;;14.20;99.90;;;;;;5111473;28;20051;-81
2021/10/14 11:35:35;;;;;;;6.32;3.83;;;14.20;99.90;;;;;;5095471;28;20036;-81
2021/10/14 11:38:09;;;;;;;8.85;4.13;;;14.20;99.90;;;;;;5094760;28;20047;-81
2021/10/14 11:40:37;;;;;;;9.55;4.15;;;14.20;99.90;;;;;;5111741;28;20395;-81
2021/10/14 11:43:03;;;;;;;12.02;4.35;;;14.20;99.90;;;;;;5094369;28;20096;-81
2021/10/14 11:45:29;;;;;;;7.15;4.38;;;14.20;99.90;;;;;;5094383;28;20047;-81
2021/10/14 11:47:54;;;;;;;14.07;3.83;;;14.20;99.90;;;;;;5093387;28;20055;-81
2021/10/14 11:50:25;;;;;;;9.25;4.68;;;14.10;99.90;;;;;;5077300;28;20039;-81
2021/10/14 11:53:17;;;;;;;9.50;3.70;;;14.10;99.90;;;;;;5111087;28;20156;-82
2021/10/14 11:55:59;;;;;;;9.38;4.15;;;14.20;99.90;;;;;;5124671;27;20359;-81
2021/10/14 11:58:25;;;;;;;10.18;3.63;;;14.20;99.90;;;;;;5094396;28;20082;-81
2021/10/14 12:00:54;;;;;;;13.25;3.33;;;14.30;99.90;;;;;;5110652;28;20052;-81
2021/10/14 12:03:20;;;;;;;9.80;3.50;;;14.30;99.90;;;;;;5093590;28;20132;-81
2021/10/14 12:05:46;;;;;;;10.65;3.80;;;14.30;99.90;;;;;;5093919;28;20043;-81
2021/10/14 12:08:12;;;;;;;9.82;4.18;;;14.40;99.90;;;;;;5077027;28;20044;-81
2021/10/14 12:10:48;;;;;;;10.52;4.50;;;14.40;99.90;;;;;;5076875;28;20119;-81
2021/10/14 12:13:15;;;;;;;8.07;3.92;;;14.40;99.90;;;;;;5093963;28;20482;-81
2021/10/14 12:15:41;;;;;;;8.30;4.35;;;14.40;99.90;;;;;;5093790;28;20123;-81
2021/10/14 12:18:09;;;;;;;5.63;3.75;;;14.50;99.90;;;;;;5092920;28;20042;-81
2021/10/14 12:20:35;;;;;;;10.20;3.97;;;14.50;99.90;;;;;;5144333;27;20490;-81
2021/10/14 12:23:06;;;;;;;13.88;5.40;;;14.60;99.90;;;;;;5127551;27;20055;-81
2021/10/14 12:25:36;;;;;;;11.02;3.40;;;14.60;99.90;;;;;;5107284;28;20032;-81
2021/10/14 12:28:03;;;;;;;6.93;3.10;;;14.60;99.90;;;;;;5124245;27;20082;-81
2021/10/14 12:30:40;;;;;;;7.00;2.92;;;14.60;99.90;;;;;;5090131;28;20040;-81
2021/10/14 12:33:12;;;;;;;6.78;2.78;;;14.60;99.90;;;;;;5124130;27;20048;-81
2021/10/14 12:36:01;;;;;;;8.05;2.88;;;14.60;99.90;;;;;;5090144;28;20032;-81
2021/10/14 12:38:41;;;;;;;8.07;3.00;;;14.50;99.90;;;;;;5089937;28;20051;-81
2021/10/14 12:41:14;;;;;;;9.30;3.25;;;14.50;99.90;;;;;;5106681;28;20044;-81
2021/10/14 12:44:02;;;;;;;6.65;3.30;;;14.50;99.90;;;;;;5106699;28;20044;-81